sensor_id;sensor_type;location;lat;lon;timestamp;pressure;altitude;pressure_sealevel;temperature;humidity
39265;BME280;42646;51.910;7.724;2023-03-18T00:00:42;100220.34;;;11.23;89.92
39265;BME280;42646;51.910;7.724;2023-03-18T00:03:12;100217.84;;;11.21;90.31
39265;BME280;42646;51.910;7.724;2023-03-18T00:05:41;100221.47;;;11.20;90.04
39265;BME280;42646;51.910;7.724;2023-03-18T00:08:09;100225.97;;;11.20;90.60
39265;BME280;42646;51.910;7.724;2023-03-18T00:10:39;100217.16;;;11.19;91.04
39265;BME280;42646;51.910;7.724;2023-03-18T00:13:07;100220.81;;;11.18;91.05
39265;BME280;42646;51.910;7.724;2023-03-18T00:15:35;100227.81;;;11.19;91.06
39265;BME280;42646;51.910;7.724;2023-03-18T00:18:03;100224.16;;;11.20;91.28
39265;BME280;42646;51.910;7.724;2023-03-18T00:20:33;100218.16;;;11.18;91.69
39265;BME280;42646;51.910;7.724;2023-03-18T00:23:05;100217.31;;;11.18;92.34
39265;BME280;42646;51.910;7.724;2023-03-18T00:25:34;100218.47;;;11.15;92.78
39265;BME280;42646;51.910;7.724;2023-03-18T00:28:02;100220.13;;;11.16;92.93
39265;BME280;42646;51.910;7.724;2023-03-18T00:30:30;100221.97;;;11.16;92.84
39265;BME280;42646;51.910;7.724;2023-03-18T00:32:58;100228.13;;;11.16;93.30
39265;BME280;42646;51.910;7.724;2023-03-18T00:35:27;100222.97;;;11.15;93.50
39265;BME280;42646;51.910;7.724;2023-03-18T00:37:57;100222.97;;;11.15;94.04
39265;BME280;42646;51.910;7.724;2023-03-18T00:40:25;100224.63;;;11.16;93.83
39265;BME280;42646;51.910;7.724;2023-03-18T00:43:08;100228.28;;;11.15;93.92
39265;BME280;42646;51.910;7.724;2023-03-18T00:45:40;100213.28;;;11.14;94.59
39265;BME280;42646;51.910;7.724;2023-03-18T00:48:08;100222.97;;;11.15;94.65
39265;BME280;42646;51.910;7.724;2023-03-18T00:50:37;100217.94;;;11.12;95.52
39265;BME280;42646;51.910;7.724;2023-03-18T00:53:05;100213.59;;;11.11;95.83
39265;BME280;42646;51.910;7.724;2023-03-18T00:55:33;100222.72;;;11.08;96.25
39265;BME280;42646;51.910;7.724;2023-03-18T00:58:01;100219.22;;;11.08;96.27
39265;BME280;42646;51.910;7.724;2023-03-18T01:00:33;100219.38;;;11.06;96.66
39265;BME280;42646;51.910;7.724;2023-03-18T01:03:02;100220.53;;;11.04;97.40
39265;BME280;42646;51.910;7.724;2023-03-18T01:05:32;100220.81;;;11.01;97.24
39265;BME280;42646;51.910;7.724;2023-03-18T01:08:02;100219.16;;;11.00;97.71
39265;BME280;42646;51.910;7.724;2023-03-18T01:10:31;100221.41;;;10.94;98.19
39265;BME280;42646;51.910;7.724;2023-03-18T01:13:00;100219.06;;;10.91;98.71
39265;BME280;42646;51.910;7.724;2023-03-18T01:15:28;100220.03;;;10.90;99.18
39265;BME280;42646;51.910;7.724;2023-03-18T01:17:56;100224.00;;;10.86;99.87
39265;BME280;42646;51.910;7.724;2023-03-18T01:20:24;100225.69;;;10.87;99.94
39265;BME280;42646;51.910;7.724;2023-03-18T01:22:54;100219.28;;;10.80;100.00
39265;BME280;42646;51.910;7.724;2023-03-18T01:25:24;100225.72;;;10.78;100.00
39265;BME280;42646;51.910;7.724;2023-03-18T01:27:55;100229.38;;;10.77;100.00
39265;BME280;42646;51.910;7.724;2023-03-18T01:30:24;100227.78;;;10.84;100.00
39265;BME280;42646;51.910;7.724;2023-03-18T01:32:54;100228.94;;;10.81;100.00
39265;BME280;42646;51.910;7.724;2023-03-18T01:35:22;100227.88;;;10.74;100.00
39265;BME280;42646;51.910;7.724;2023-03-18T01:37:53;100217.06;;;10.76;100.00
39265;BME280;42646;51.910;7.724;2023-03-18T01:40:20;100214.41;;;10.76;100.00
39265;BME280;42646;51.910;7.724;2023-03-18T01:42:57;100219.72;;;10.76;100.00
39265;BME280;42646;51.910;7.724;2023-03-18T01:45:32;100223.78;;;10.80;100.00
39265;BME280;42646;51.910;7.724;2023-03-18T01:48:01;100211.44;;;10.79;100.00
39265;BME280;42646;51.910;7.724;2023-03-18T01:50:31;100210.31;;;10.81;100.00
39265;BME280;42646;51.910;7.724;2023-03-18T01:53:07;100211.31;;;10.80;100.00
39265;BME280;42646;51.910;7.724;2023-03-18T01:55:38;100219.97;;;10.82;100.00
39265;BME280;42646;51.910;7.724;2023-03-18T01:58:13;100210.31;;;10.81;100.00
39265;BME280;42646;51.910;7.724;2023-03-18T02:00:47;100213.50;;;10.85;100.00
39265;BME280;42646;51.910;7.724;2023-03-18T02:03:18;100211.16;;;10.82;100.00
39265;BME280;42646;51.910;7.724;2023-03-18T02:05:47;100206.13;;;10.79;100.00
39265;BME280;42646;51.910;7.724;2023-03-18T02:08:16;100222.25;;;10.77;100.00
39265;BME280;42646;51.910;7.724;2023-03-18T02:10:44;100230.38;;;10.76;100.00
39265;BME280;42646;51.910;7.724;2023-03-18T02:13:14;100223.50;;;10.73;99.84
39265;BME280;42646;51.910;7.724;2023-03-18T02:15:46;100230.81;;;10.71;99.38
39265;BME280;42646;51.910;7.724;2023-03-18T02:18:19;100225.81;;;10.68;99.39
39265;BME280;42646;51.910;7.724;2023-03-18T02:21:02;100226.78;;;10.67;99.20
39265;BME280;42646;51.910;7.724;2023-03-18T02:23:42;100227.25;;;10.62;99.30
39265;BME280;42646;51.910;7.724;2023-03-18T02:26:20;100216.88;;;10.59;99.19
39265;BME280;42646;51.910;7.724;2023-03-18T02:28:53;100220.69;;;10.57;99.37
39265;BME280;42646;51.910;7.724;2023-03-18T02:31:24;100225.31;;;10.55;99.54
39265;BME280;42646;51.910;7.724;2023-03-18T02:33:53;100235.28;;;10.53;99.70
39265;BME280;42646;51.910;7.724;2023-03-18T02:36:23;100239.91;;;10.51;99.57
39265;BME280;42646;51.910;7.724;2023-03-18T02:38:56;100226.22;;;10.46;99.29
39265;BME280;42646;51.910;7.724;2023-03-18T02:41:29;100240.78;;;10.41;99.42
39265;BME280;42646;51.910;7.724;2023-03-18T02:43:58;100243.75;;;10.38;98.87
39265;BME280;42646;51.910;7.724;2023-03-18T02:46:38;100243.34;;;10.33;98.88
39265;BME280;42646;51.910;7.724;2023-03-18T02:49:08;100244.47;;;10.31;99.01
39265;BME280;42646;51.910;7.724;2023-03-18T02:51:38;100250.09;;;10.28;98.90
39265;BME280;42646;51.910;7.724;2023-03-18T02:54:09;100251.09;;;10.27;99.41
39265;BME280;42646;51.910;7.724;2023-03-18T02:56:38;100247.72;;;10.25;99.73
39265;BME280;42646;51.910;7.724;2023-03-18T02:59:07;100248.81;;;10.22;100.00
39265;BME280;42646;51.910;7.724;2023-03-18T03:01:37;100247.97;;;10.22;99.86
39265;BME280;42646;51.910;7.724;2023-03-18T03:04:05;100240.84;;;10.22;100.00
39265;BME280;42646;51.910;7.724;2023-03-18T03:06:35;100240.00;;;10.22;100.00
39265;BME280;42646;51.910;7.724;2023-03-18T03:09:04;100237.22;;;10.23;100.00
39265;BME280;42646;51.910;7.724;2023-03-18T03:11:34;100240.84;;;10.22;100.00
39265;BME280;42646;51.910;7.724;2023-03-18T03:14:12;100241.84;;;10.21;100.00
39265;BME280;42646;51.910;7.724;2023-03-18T03:16:42;100246.31;;;10.21;100.00
39265;BME280;42646;51.910;7.724;2023-03-18T03:19:12;100245.47;;;10.20;100.00
39265;BME280;42646;51.910;7.724;2023-03-18T03:21:41;100241.97;;;10.20;100.00
39265;BME280;42646;51.910;7.724;2023-03-18T03:24:09;100241.00;;;10.21;100.00
39265;BME280;42646;51.910;7.724;2023-03-18T03:26:38;100226.88;;;10.20;100.00
39265;BME280;42646;51.910;7.724;2023-03-18T03:29:06;100241.00;;;10.21;100.00
39265;BME280;42646;51.910;7.724;2023-03-18T03:31:35;100231.31;;;10.20;100.00
39265;BME280;42646;51.910;7.724;2023-03-18T03:34:05;100239.28;;;10.20;100.00
39265;BME280;42646;51.910;7.724;2023-03-18T03:36:34;100240.28;;;10.18;100.00
39265;BME280;42646;51.910;7.724;2023-03-18T03:39:02;100237.50;;;10.20;99.98
39265;BME280;42646;51.910;7.724;2023-03-18T03:41:33;100246.16;;;10.22;99.64
39265;BME280;42646;51.910;7.724;2023-03-18T03:44:03;100253.44;;;10.20;100.00
39265;BME280;42646;51.910;7.724;2023-03-18T03:46:30;100250.78;;;10.20;100.00
39265;BME280;42646;51.910;7.724;2023-03-18T03:49:00;100246.06;;;10.14;100.00
39265;BME280;42646;51.910;7.724;2023-03-18T03:51:28;100249.00;;;10.11;100.00
39265;BME280;42646;51.910;7.724;2023-03-18T03:53:56;100253.75;;;10.07;100.00
39265;BME280;42646;51.910;7.724;2023-03-18T03:56:29;100264.69;;;10.04;100.00
39265;BME280;42646;51.910;7.724;2023-03-18T03:58:57;100268.47;;;10.02;100.00
39265;BME280;42646;51.910;7.724;2023-03-18T04:01:54;100273.38;;;9.97;99.63
39265;BME280;42646;51.910;7.724;2023-03-18T04:04:24;100276.16;;;9.95;99.24
39265;BME280;42646;51.910;7.724;2023-03-18T04:06:52;100282.47;;;9.94;99.98
39265;BME280;42646;51.910;7.724;2023-03-18T04:09:22;100275.34;;;9.95;100.00
39265;BME280;42646;51.910;7.724;2023-03-18T04:11:50;100286.69;;;9.77;100.00
39265;BME280;42646;51.910;7.724;2023-03-18T04:14:21;100287.56;;;9.68;100.00
39265;BME280;42646;51.910;7.724;2023-03-18T04:16:53;100296.22;;;9.60;100.00
39265;BME280;42646;51.910;7.724;2023-03-18T04:19:28;100288.81;;;9.54;100.00
39265;BME280;42646;51.910;7.724;2023-03-18T04:21:55;100284.47;;;9.53;100.00
39265;BME280;42646;51.910;7.724;2023-03-18T04:24:23;100285.31;;;9.54;100.00
39265;BME280;42646;51.910;7.724;2023-03-18T04:26:51;100285.63;;;9.51;100.00
39265;BME280;42646;51.910;7.724;2023-03-18T04:29:21;100282.97;;;9.51;100.00
39265;BME280;42646;51.910;7.724;2023-03-18T04:31:49;100286.44;;;9.51;100.00
39265;BME280;42646;51.910;7.724;2023-03-18T04:34:21;100294.56;;;9.50;100.00
39265;BME280;42646;51.910;7.724;2023-03-18T04:36:51;100293.72;;;9.49;100.00
39265;BME280;42646;51.910;7.724;2023-03-18T04:39:22;100292.88;;;9.49;100.00
39265;BME280;42646;51.910;7.724;2023-03-18T04:41:50;100296.50;;;9.48;100.00
39265;BME280;42646;51.910;7.724;2023-03-18T04:44:18;100297.47;;;9.47;100.00
39265;BME280;42646;51.910;7.724;2023-03-18T04:46:50;100302.09;;;9.45;100.00
39265;BME280;42646;51.910;7.724;2023-03-18T04:49:20;100304.03;;;9.43;100.00
39265;BME280;42646;51.910;7.724;2023-03-18T04:51:48;100312.31;;;9.40;100.00
39265;BME280;42646;51.910;7.724;2023-03-18T04:54:26;100313.53;;;9.35;100.00
39265;BME280;42646;51.910;7.724;2023-03-18T04:56:58;100312.16;;;9.31;100.00
39265;BME280;42646;51.910;7.724;2023-03-18T04:59:31;100312.56;;;9.27;100.00
39265;BME280;42646;51.910;7.724;2023-03-18T05:02:02;100318.97;;;9.24;100.00
39265;BME280;42646;51.910;7.724;2023-03-18T05:04:31;100314.81;;;9.22;100.00
39265;BME280;42646;51.910;7.724;2023-03-18T05:07:00;100318.44;;;9.21;100.00
39265;BME280;42646;51.910;7.724;2023-03-18T05:09:34;100315.94;;;9.19;100.00
39265;BME280;42646;51.910;7.724;2023-03-18T05:12:05;100315.50;;;9.14;100.00
39265;BME280;42646;51.910;7.724;2023-03-18T05:14:35;100311.00;;;9.05;100.00
39265;BME280;42646;51.910;7.724;2023-03-18T05:17:03;100311.41;;;9.00;100.00
39265;BME280;42646;51.910;7.724;2023-03-18T05:19:36;100315.44;;;8.95;100.00
39265;BME280;42646;51.910;7.724;2023-03-18T05:22:13;100325.09;;;8.96;100.00
39265;BME280;42646;51.910;7.724;2023-03-18T05:24:45;100321.72;;;8.94;100.00
39265;BME280;42646;51.910;7.724;2023-03-18T05:27:14;100322.69;;;8.93;100.00
39265;BME280;42646;51.910;7.724;2023-03-18T05:29:49;100316.41;;;8.94;100.00
39265;BME280;42646;51.910;7.724;2023-03-18T05:32:23;100318.09;;;8.95;100.00
39265;BME280;42646;51.910;7.724;2023-03-18T05:34:58;100310.72;;;8.98;100.00
39265;BME280;42646;51.910;7.724;2023-03-18T05:37:28;100315.75;;;9.01;100.00
39265;BME280;42646;51.910;7.724;2023-03-18T05:40:05;100303.19;;;9.03;100.00
39265;BME280;42646;51.910;7.724;2023-03-18T05:42:41;100303.72;;;9.07;100.00
39265;BME280;42646;51.910;7.724;2023-03-18T05:45:28;100319.41;;;9.10;100.00
39265;BME280;42646;51.910;7.724;2023-03-18T05:47:57;100316.47;;;9.13;100.00
39265;BME280;42646;51.910;7.724;2023-03-18T05:50:29;100315.34;;;9.16;100.00
39265;BME280;42646;51.910;7.724;2023-03-18T05:53:05;100322.75;;;9.22;100.00
39265;BME280;42646;51.910;7.724;2023-03-18T05:55:38;100320.25;;;9.20;100.00
39265;BME280;42646;51.910;7.724;2023-03-18T05:58:07;100329.88;;;9.21;100.00
39265;BME280;42646;51.910;7.724;2023-03-18T06:00:40;100334.38;;;9.21;100.00
39265;BME280;42646;51.910;7.724;2023-03-18T06:03:09;100334.38;;;9.21;100.00
39265;BME280;42646;51.910;7.724;2023-03-18T06:05:38;100335.19;;;9.21;100.00
39265;BME280;42646;51.910;7.724;2023-03-18T06:08:06;100343.84;;;9.23;100.00
39265;BME280;42646;51.910;7.724;2023-03-18T06:10:35;100339.13;;;9.27;100.00
39265;BME280;42646;51.910;7.724;2023-03-18T06:13:06;100339.56;;;9.32;100.00
39265;BME280;42646;51.910;7.724;2023-03-18T06:15:35;100345.41;;;9.35;100.00
39265;BME280;42646;51.910;7.724;2023-03-18T06:18:04;100344.00;;;9.41;100.00
39265;BME280;42646;51.910;7.724;2023-03-18T06:20:34;100345.44;;;9.45;100.00
39265;BME280;42646;51.910;7.724;2023-03-18T06:23:02;100352.97;;;9.50;100.00
39265;BME280;42646;51.910;7.724;2023-03-18T06:25:32;100364.44;;;9.50;100.00
39265;BME280;42646;51.910;7.724;2023-03-18T06:28:00;100362.75;;;9.49;100.00
39265;BME280;42646;51.910;7.724;2023-03-18T06:30:30;100362.91;;;9.57;100.00
39265;BME280;42646;51.910;7.724;2023-03-18T06:32:59;100366.25;;;9.59;100.00
39265;BME280;42646;51.910;7.724;2023-03-18T06:35:27;100359.53;;;9.65;100.00
39265;BME280;42646;51.910;7.724;2023-03-18T06:37:58;100360.53;;;9.74;100.00
39265;BME280;42646;51.910;7.724;2023-03-18T06:40:29;100360.13;;;9.78;100.00
39265;BME280;42646;51.910;7.724;2023-03-18T06:42:58;100363.88;;;9.85;100.00
39265;BME280;42646;51.910;7.724;2023-03-18T06:45:35;100370.56;;;9.89;100.00
39265;BME280;42646;51.910;7.724;2023-03-18T06:48:05;100379.69;;;9.97;100.00
39265;BME280;42646;51.910;7.724;2023-03-18T06:50:39;100368.75;;;10.00;100.00
39265;BME280;42646;51.910;7.724;2023-03-18T06:53:15;100377.00;;;10.06;100.00
39265;BME280;42646;51.910;7.724;2023-03-18T06:55:46;100382.59;;;10.13;100.00
39265;BME280;42646;51.910;7.724;2023-03-18T06:58:18;100375.75;;;10.20;100.00
39265;BME280;42646;51.910;7.724;2023-03-18T07:00:57;100375.47;;;10.23;100.00
39265;BME280;42646;51.910;7.724;2023-03-18T07:03:30;100376.72;;;10.29;100.00
39265;BME280;42646;51.910;7.724;2023-03-18T07:05:58;100382.59;;;10.32;100.00
39265;BME280;42646;51.910;7.724;2023-03-18T07:08:26;100387.63;;;10.35;100.00
39265;BME280;42646;51.910;7.724;2023-03-18T07:10:54;100390.69;;;10.40;100.00
39265;BME280;42646;51.910;7.724;2023-03-18T07:13:25;100399.06;;;10.46;100.00
39265;BME280;42646;51.910;7.724;2023-03-18T07:15:55;100399.34;;;10.52;100.00
39265;BME280;42646;51.910;7.724;2023-03-18T07:18:28;100397.78;;;10.59;100.00
39265;BME280;42646;51.910;7.724;2023-03-18T07:20:55;100406.31;;;10.63;100.00
39265;BME280;42646;51.910;7.724;2023-03-18T07:23:25;100411.72;;;10.71;100.00
39265;BME280;42646;51.910;7.724;2023-03-18T07:25:55;100412.28;;;10.75;100.00
39265;BME280;42646;51.910;7.724;2023-03-18T07:28:24;100416.19;;;10.80;100.00
39265;BME280;42646;51.910;7.724;2023-03-18T07:30:53;100409.47;;;10.86;100.00
39265;BME280;42646;51.910;7.724;2023-03-18T07:33:22;100415.03;;;10.92;100.00
39265;BME280;42646;51.910;7.724;2023-03-18T07:36:17;100421.44;;;11.00;100.00
39265;BME280;42646;51.910;7.724;2023-03-18T07:38:44;100424.66;;;11.03;100.00
39265;BME280;42646;51.910;7.724;2023-03-18T07:41:12;100421.53;;;11.08;100.00
39265;BME280;42646;51.910;7.724;2023-03-18T07:43:40;100419.28;;;11.13;100.00
39265;BME280;42646;51.910;7.724;2023-03-18T07:46:09;100425.53;;;11.21;100.00
39265;BME280;42646;51.910;7.724;2023-03-18T07:48:37;100421.97;;;11.31;100.00
39265;BME280;42646;51.910;7.724;2023-03-18T07:51:04;100430.91;;;11.39;100.00
39265;BME280;42646;51.910;7.724;2023-03-18T07:53:35;100422.16;;;11.47;100.00
39265;BME280;42646;51.910;7.724;2023-03-18T07:56:04;100428.28;;;11.57;100.00
39265;BME280;42646;51.910;7.724;2023-03-18T07:58:32;100427.34;;;11.66;100.00
39265;BME280;42646;51.910;7.724;2023-03-18T08:01:05;100429.59;;;11.71;100.00
39265;BME280;42646;51.910;7.724;2023-03-18T08:03:33;100424.75;;;11.84;100.00
39265;BME280;42646;51.910;7.724;2023-03-18T08:06:00;100431.44;;;11.88;100.00
39265;BME280;42646;51.910;7.724;2023-03-18T08:08:28;100430.16;;;11.92;100.00
39265;BME280;42646;51.910;7.724;2023-03-18T08:10:58;100435.00;;;11.97;100.00
39265;BME280;42646;51.910;7.724;2023-03-18T08:13:27;100439.06;;;12.01;100.00
39265;BME280;42646;51.910;7.724;2023-03-18T08:15:55;100443.94;;;12.06;100.00
39265;BME280;42646;51.910;7.724;2023-03-18T08:18:23;100445.31;;;12.10;100.00
39265;BME280;42646;51.910;7.724;2023-03-18T08:20:58;100449.03;;;12.17;100.00
39265;BME280;42646;51.910;7.724;2023-03-18T08:23:25;100452.31;;;12.28;100.00
39265;BME280;42646;51.910;7.724;2023-03-18T08:25:53;100460.38;;;12.37;100.00
39265;BME280;42646;51.910;7.724;2023-03-18T08:28:25;100455.56;;;12.40;100.00
39265;BME280;42646;51.910;7.724;2023-03-18T08:30:53;100465.63;;;12.46;100.00
39265;BME280;42646;51.910;7.724;2023-03-18T08:33:22;100464.00;;;12.53;100.00
39265;BME280;42646;51.910;7.724;2023-03-18T08:35:50;100462.34;;;12.52;100.00
39265;BME280;42646;51.910;7.724;2023-03-18T08:38:18;100457.50;;;12.56;100.00
39265;BME280;42646;51.910;7.724;2023-03-18T08:40:46;100462.75;;;12.66;100.00
39265;BME280;42646;51.910;7.724;2023-03-18T08:43:13;100463.50;;;12.76;100.00
39265;BME280;42646;51.910;7.724;2023-03-18T08:45:45;100461.31;;;12.79;100.00
39265;BME280;42646;51.910;7.724;2023-03-18T08:48:12;100466.19;;;12.84;100.00
39265;BME280;42646;51.910;7.724;2023-03-18T08:50:41;100466.78;;;12.96;100.00
39265;BME280;42646;51.910;7.724;2023-03-18T08:53:08;100479.31;;;13.03;100.00
39265;BME280;42646;51.910;7.724;2023-03-18T08:55:36;100475.53;;;13.14;99.86
39265;BME280;42646;51.910;7.724;2023-03-18T08:58:05;100478.84;;;13.08;99.79
39265;BME280;42646;51.910;7.724;2023-03-18T09:00:34;100472.84;;;13.06;99.63
39265;BME280;42646;51.910;7.724;2023-03-18T09:03:05;100486.88;;;13.08;99.69
39265;BME280;42646;51.910;7.724;2023-03-18T09:05:33;100487.22;;;13.13;99.70
39265;BME280;42646;51.910;7.724;2023-03-18T09:08:03;100485.69;;;13.28;99.35
39265;BME280;42646;51.910;7.724;2023-03-18T09:10:31;100488.34;;;13.28;98.64
39265;BME280;42646;51.910;7.724;2023-03-18T09:13:00;100488.84;;;13.32;98.91
39265;BME280;42646;51.910;7.724;2023-03-18T09:15:28;100492.72;;;13.38;98.38
39265;BME280;42646;51.910;7.724;2023-03-18T09:17:59;100493.63;;;13.46;97.70
39265;BME280;42646;51.910;7.724;2023-03-18T09:20:39;100492.09;;;13.52;96.52
39265;BME280;42646;51.910;7.724;2023-03-18T09:23:08;100491.63;;;13.56;95.80
39265;BME280;42646;51.910;7.724;2023-03-18T09:25:37;100487.63;;;13.60;95.07
39265;BME280;42646;51.910;7.724;2023-03-18T09:28:04;100496.50;;;13.69;95.09
39265;BME280;42646;51.910;7.724;2023-03-18T09:30:33;100496.91;;;13.90;94.75
39265;BME280;42646;51.910;7.724;2023-03-18T09:33:01;100492.09;;;14.02;94.86
39265;BME280;42646;51.910;7.724;2023-03-18T09:35:30;100496.81;;;14.25;94.36
39265;BME280;42646;51.910;7.724;2023-03-18T09:38:00;100490.94;;;14.37;92.01
39265;BME280;42646;51.910;7.724;2023-03-18T09:40:30;100492.13;;;14.43;90.37
39265;BME280;42646;51.910;7.724;2023-03-18T09:43:12;100497.00;;;14.48;89.16
39265;BME280;42646;51.910;7.724;2023-03-18T09:45:50;100499.19;;;14.60;89.13
39265;BME280;42646;51.910;7.724;2023-03-18T09:48:59;100505.34;;;14.69;89.59
39265;BME280;42646;51.910;7.724;2023-03-18T09:51:40;100510.53;;;14.79;86.35
39265;BME280;42646;51.910;7.724;2023-03-18T09:54:15;100503.31;;;14.87;86.47
39265;BME280;42646;51.910;7.724;2023-03-18T09:56:46;100508.03;;;14.85;85.60
39265;BME280;42646;51.910;7.724;2023-03-18T09:59:19;100512.19;;;14.88;85.77
39265;BME280;42646;51.910;7.724;2023-03-18T10:01:52;100515.56;;;14.90;85.96
39265;BME280;42646;51.910;7.724;2023-03-18T10:04:23;100518.56;;;14.95;86.46
39265;BME280;42646;51.910;7.724;2023-03-18T10:06:56;100515.34;;;15.00;86.08
39265;BME280;42646;51.910;7.724;2023-03-18T10:09:29;100518.53;;;15.03;84.04
39265;BME280;42646;51.910;7.724;2023-03-18T10:12:27;100518.91;;;15.00;83.71
39265;BME280;42646;51.910;7.724;2023-03-18T10:15:10;100513.00;;;15.05;84.36
39265;BME280;42646;51.910;7.724;2023-03-18T10:17:49;100525.56;;;15.12;83.00
39265;BME280;42646;51.910;7.724;2023-03-18T10:20:25;100516.66;;;15.12;82.95
39265;BME280;42646;51.910;7.724;2023-03-18T10:23:08;100518.50;;;15.19;83.40
39265;BME280;42646;51.910;7.724;2023-03-18T10:25:48;100523.19;;;15.26;82.54
39265;BME280;42646;51.910;7.724;2023-03-18T10:28:45;100522.81;;;15.29;82.06
39265;BME280;42646;51.910;7.724;2023-03-18T10:31:22;100529.53;;;15.33;81.96
39265;BME280;42646;51.910;7.724;2023-03-18T10:33:56;100525.69;;;15.27;81.50
39265;BME280;42646;51.910;7.724;2023-03-18T10:36:31;100525.19;;;15.23;80.71
39265;BME280;42646;51.910;7.724;2023-03-18T10:39:04;100528.22;;;15.20;81.13
39265;BME280;42646;51.910;7.724;2023-03-18T10:41:39;100527.88;;;15.15;81.42
39265;BME280;42646;51.910;7.724;2023-03-18T10:44:15;100528.06;;;15.14;81.43
39265;BME280;42646;51.910;7.724;2023-03-18T10:46:45;100530.56;;;15.15;81.89
39265;BME280;42646;51.910;7.724;2023-03-18T10:49:16;100529.56;;;15.16;82.28
39265;BME280;42646;51.910;7.724;2023-03-18T10:51:49;100530.91;;;15.20;82.32
39265;BME280;42646;51.910;7.724;2023-03-18T10:54:21;100532.22;;;15.25;81.87
39265;BME280;42646;51.910;7.724;2023-03-18T10:56:53;100532.19;;;15.33;81.71
39265;BME280;42646;51.910;7.724;2023-03-18T10:59:24;100540.06;;;15.42;81.13
39265;BME280;42646;51.910;7.724;2023-03-18T11:01:57;100542.19;;;15.55;80.41
39265;BME280;42646;51.910;7.724;2023-03-18T11:04:27;100534.09;;;15.71;77.70
39265;BME280;42646;51.910;7.724;2023-03-18T11:06:58;100532.28;;;15.64;77.73
39265;BME280;42646;51.910;7.724;2023-03-18T11:09:30;100534.25;;;15.70;77.40
39265;BME280;42646;51.910;7.724;2023-03-18T11:12:04;100531.38;;;15.80;76.82
39265;BME280;42646;51.910;7.724;2023-03-18T11:14:33;100527.69;;;15.81;76.25
39265;BME280;42646;51.910;7.724;2023-03-18T11:17:04;100529.53;;;15.80;76.32
39265;BME280;42646;51.910;7.724;2023-03-18T11:19:36;100535.16;;;15.93;74.87
39265;BME280;42646;51.910;7.724;2023-03-18T11:22:15;100528.69;;;15.80;75.73
39265;BME280;42646;51.910;7.724;2023-03-18T11:24:45;100533.19;;;15.87;74.83
39265;BME280;42646;51.910;7.724;2023-03-18T11:27:28;100530.03;;;15.84;74.77
39265;BME280;42646;51.910;7.724;2023-03-18T11:30:03;100535.41;;;15.75;75.57
39265;BME280;42646;51.910;7.724;2023-03-18T11:32:33;100526.66;;;15.82;75.46
39265;BME280;42646;51.910;7.724;2023-03-18T11:35:06;100519.56;;;15.89;75.09
39265;BME280;42646;51.910;7.724;2023-03-18T11:37:36;100520.66;;;15.80;74.29
39265;BME280;42646;51.910;7.724;2023-03-18T11:40:30;100509.09;;;15.71;74.52
39265;BME280;42646;51.910;7.724;2023-03-18T11:43:14;100509.66;;;15.66;75.19
39265;BME280;42646;51.910;7.724;2023-03-18T11:45:46;100506.59;;;15.78;74.92
39265;BME280;42646;51.910;7.724;2023-03-18T11:48:22;100510.81;;;15.64;75.27
39265;BME280;42646;51.910;7.724;2023-03-18T11:51:01;100508.47;;;15.69;76.52
39265;BME280;42646;51.910;7.724;2023-03-18T11:53:41;100505.19;;;15.82;75.39
39265;BME280;42646;51.910;7.724;2023-03-18T11:56:22;100506.22;;;15.81;75.07
39265;BME280;42646;51.910;7.724;2023-03-18T11:59:06;100506.22;;;15.81;75.66
39265;BME280;42646;51.910;7.724;2023-03-18T12:01:42;100502.19;;;15.85;74.99
39265;BME280;42646;51.910;7.724;2023-03-18T12:04:53;100499.63;;;15.91;74.08
39265;BME280;42646;51.910;7.724;2023-03-18T12:07:40;100498.69;;;16.07;72.43
39265;BME280;42646;51.910;7.724;2023-03-18T12:10:18;100495.75;;;16.17;72.04
39265;BME280;42646;51.910;7.724;2023-03-18T12:13:01;100483.25;;;16.32;71.55
39265;BME280;42646;51.910;7.724;2023-03-18T12:15:42;100484.41;;;16.29;70.86
39265;BME280;42646;51.910;7.724;2023-03-18T12:18:16;100485.16;;;16.23;71.76
39265;BME280;42646;51.910;7.724;2023-03-18T12:20:48;100490.50;;;16.23;70.85
39265;BME280;42646;51.910;7.724;2023-03-18T12:23:48;100473.03;;;16.27;70.41
39265;BME280;42646;51.910;7.724;2023-03-18T12:26:23;100479.53;;;16.33;71.35
39265;BME280;42646;51.910;7.724;2023-03-18T12:29:08;100483.34;;;16.39;70.98
39265;BME280;42646;51.910;7.724;2023-03-18T12:31:53;100477.56;;;16.50;70.41
39265;BME280;42646;51.910;7.724;2023-03-18T12:34:34;100482.44;;;16.46;71.22
39265;BME280;42646;51.910;7.724;2023-03-18T12:37:17;100479.88;;;16.53;69.81
39265;BME280;42646;51.910;7.724;2023-03-18T12:40:11;100484.41;;;16.52;71.22
39265;BME280;42646;51.910;7.724;2023-03-18T12:42:54;100480.53;;;16.55;70.60
39265;BME280;42646;51.910;7.724;2023-03-18T12:45:29;100491.28;;;16.55;70.42
39265;BME280;42646;51.910;7.724;2023-03-18T12:48:03;100481.38;;;16.55;70.09
39265;BME280;42646;51.910;7.724;2023-03-18T12:50:41;100482.41;;;16.54;70.22
39265;BME280;42646;51.910;7.724;2023-03-18T12:53:16;100478.50;;;16.57;69.80
39265;BME280;42646;51.910;7.724;2023-03-18T12:55:49;100487.50;;;16.64;69.72
39265;BME280;42646;51.910;7.724;2023-03-18T12:58:22;100483.56;;;16.75;68.95
39265;BME280;42646;51.910;7.724;2023-03-18T13:00:53;100483.88;;;16.80;68.02
39265;BME280;42646;51.910;7.724;2023-03-18T13:03:31;100480.44;;;16.86;67.37
39265;BME280;42646;51.910;7.724;2023-03-18T13:06:04;100476.63;;;16.95;67.64
39265;BME280;42646;51.910;7.724;2023-03-18T13:08:55;100478.22;;;17.04;68.17
39265;BME280;42646;51.910;7.724;2023-03-18T13:11:35;100481.47;;;17.15;65.68
39265;BME280;42646;51.910;7.724;2023-03-18T13:14:13;100476.75;;;17.17;65.96